Time;durP1;ratioP1;P1;durP2;ratioP2;P2;SDS_P1;SDS_P2;PMS_P1;PMS_P2;Temp;Humidity;BMP_temperature;BMP_pressure;BME280_temperature;BME280_humidity;BME280_pressure;Samples;Min_cycle;Max_cycle;Signal;HPM_P1;HPM_P2
2020/12/18 00:02:50;;;;;;;8.28;4.60;;;3.80;99.90;;;;;;1893263;75;21131;-73
2020/12/18 00:05:17;;;;;;;12.60;5.45;;;3.90;99.90;;;;;;1885198;75;21095;-72
2020/12/18 00:07:43;;;;;;;6.00;4.42;;;3.90;99.90;;;;;;1888903;75;21065;-72
2020/12/18 00:10:09;;;;;;;9.63;4.95;;;3.90;99.90;;;;;;1882807;75;21143;-71
2020/12/18 00:12:35;;;;;;;7.25;4.53;;;3.70;99.90;;;;;;1893498;75;21149;-73
2020/12/18 00:15:01;;;;;;;11.38;5.12;;;3.70;99.90;;;;;;1893366;75;21142;-72
2020/12/18 00:17:27;;;;;;;9.28;4.83;;;3.60;99.90;;;;;;1889519;74;21158;-73
2020/12/18 00:19:53;;;;;;;8.38;4.03;;;3.60;99.90;;;;;;1885018;75;21051;-71
2020/12/18 00:22:19;;;;;;;7.12;4.80;;;3.60;99.90;;;;;;1888163;75;21137;-71
2020/12/18 00:24:45;;;;;;;7.10;4.62;;;3.60;99.90;;;;;;1880523;75;21085;-71
2020/12/18 00:27:12;;;;;;;7.30;4.75;;;3.50;99.90;;;;;;1883801;75;21191;-72
2020/12/18 00:29:38;;;;;;;13.60;5.00;;;3.50;99.90;;;;;;1891480;75;21503;-72
2020/12/18 00:32:04;;;;;;;6.75;4.45;;;3.40;99.90;;;;;;1888569;75;21490;-71
2020/12/18 00:34:30;;;;;;;8.13;5.12;;;3.40;99.90;;;;;;1891501;75;21075;-71
2020/12/18 00:36:56;;;;;;;11.38;5.83;;;3.40;99.90;;;;;;1888378;75;21056;-73
2020/12/18 00:39:22;;;;;;;12.58;5.78;;;3.40;99.90;;;;;;1895240;75;21075;-72
2020/12/18 00:41:48;;;;;;;14.95;5.40;;;3.40;99.90;;;;;;1882148;75;21070;-72
2020/12/18 00:44:14;;;;;;;8.50;5.35;;;3.40;99.90;;;;;;1884937;75;21074;-72
2020/12/18 00:46:42;;;;;;;8.60;4.87;;;3.40;99.90;;;;;;1886091;75;21087;-73
2020/12/18 00:49:09;;;;;;;11.53;5.62;;;3.20;99.90;;;;;;1886421;74;21073;-72
2020/12/18 00:51:35;;;;;;;16.90;5.15;;;3.30;99.90;;;;;;1889417;75;21075;-71
2020/12/18 00:54:01;;;;;;;15.80;5.83;;;3.30;99.90;;;;;;1884516;74;21075;-71
2020/12/18 00:56:27;;;;;;;13.55;5.80;;;3.30;99.90;;;;;;1889842;75;21149;-71
2020/12/18 00:58:53;;;;;;;11.70;6.35;;;3.30;99.90;;;;;;1889028;75;21135;-72
2020/12/18 01:01:19;;;;;;;12.23;5.40;;;3.30;99.90;;;;;;1892279;75;21205;-72
2020/12/18 01:03:45;;;;;;;11.73;5.85;;;3.10;99.90;;;;;;1888964;74;21082;-72
2020/12/18 01:06:11;;;;;;;9.55;5.22;;;3.00;99.90;;;;;;1881937;75;21427;-72
2020/12/18 01:08:43;;;;;;;10.72;5.95;;;3.00;99.90;;;;;;1883525;75;21469;-71
2020/12/18 01:11:10;;;;;;;13.20;5.95;;;3.00;99.90;;;;;;1881177;74;21046;-73
2020/12/18 01:13:36;;;;;;;9.55;5.62;;;3.10;99.90;;;;;;1883278;75;21055;-71
2020/12/18 01:16:02;;;;;;;6.30;4.42;;;3.10;99.90;;;;;;1888866;75;21539;-72
2020/12/18 01:18:28;;;;;;;10.53;5.30;;;3.00;99.90;;;;;;1890479;75;21568;-73
2020/12/18 01:20:54;;;;;;;9.38;4.83;;;2.90;99.90;;;;;;1886079;75;21493;-73
2020/12/18 01:23:20;;;;;;;6.55;4.85;;;2.90;99.90;;;;;;1889784;75;21157;-72
2020/12/18 01:25:46;;;;;;;6.65;4.47;;;2.80;99.90;;;;;;1881405;75;21066;-73
2020/12/18 01:28:13;;;;;;;9.15;4.83;;;2.80;99.90;;;;;;1889222;75;21056;-73
2020/12/18 01:30:39;;;;;;;6.55;4.70;;;2.80;99.90;;;;;;1884396;75;21149;-72
2020/12/18 01:33:05;;;;;;;8.98;5.45;;;2.90;99.90;;;;;;1894141;75;21087;-72
2020/12/18 01:35:31;;;;;;;7.78;5.00;;;2.90;99.90;;;;;;1889044;74;21067;-72
2020/12/18 01:37:57;;;;;;;7.85;5.00;;;2.90;99.90;;;;;;1890377;75;21196;-73
2020/12/18 01:40:23;;;;;;;9.70;5.12;;;2.90;99.90;;;;;;1887561;75;21490;-72
2020/12/18 01:42:49;;;;;;;12.60;5.28;;;3.00;99.90;;;;;;1886834;75;21575;-73
2020/12/18 01:45:15;;;;;;;10.08;5.42;;;3.00;99.90;;;;;;1883496;75;21985;-72
2020/12/18 01:47:41;;;;;;;10.35;4.92;;;3.00;99.90;;;;;;1882313;75;21055;-73
2020/12/18 01:50:08;;;;;;;7.08;4.28;;;3.00;99.90;;;;;;1881345;75;21143;-72
2020/12/18 01:52:34;;;;;;;7.97;4.78;;;3.00;99.90;;;;;;1895233;75;21072;-72
2020/12/18 01:55:00;;;;;;;6.35;4.05;;;3.00;99.90;;;;;;1864249;75;21065;-72
2020/12/18 01:57:26;;;;;;;5.97;4.00;;;3.10;99.90;;;;;;1887150;75;21121;-72
2020/12/18 01:59:52;;;;;;;6.53;4.58;;;3.00;99.90;;;;;;1880994;75;21133;-72
2020/12/18 02:02:18;;;;;;;7.33;4.08;;;3.10;99.90;;;;;;1883432;75;21156;-72
2020/12/18 02:04:45;;;;;;;7.55;4.37;;;3.10;99.90;;;;;;1889500;75;21577;-72
2020/12/18 02:07:11;;;;;;;4.28;3.47;;;3.10;99.90;;;;;;1891351;75;21188;-71
2020/12/18 02:09:37;;;;;;;5.92;4.15;;;3.20;99.90;;;;;;1894297;75;21087;-72
2020/12/18 02:12:03;;;;;;;9.78;4.05;;;3.20;99.90;;;;;;1890287;75;21075;-72
2020/12/18 02:14:29;;;;;;;5.25;4.53;;;3.20;99.90;;;;;;1878358;75;21106;-71
2020/12/18 02:16:55;;;;;;;16.85;4.85;;;3.30;99.90;;;;;;1874465;75;21072;-71
2020/12/18 02:19:21;;;;;;;8.05;4.25;;;3.30;99.90;;;;;;1883234;74;21078;-72
2020/12/18 02:21:47;;;;;;;4.67;3.98;;;3.20;99.90;;;;;;1881136;75;21079;-72
2020/12/18 02:24:14;;;;;;;10.98;4.60;;;3.30;99.90;;;;;;1878350;75;21780;-71
2020/12/18 02:26:40;;;;;;;6.92;3.77;;;3.10;99.90;;;;;;1878257;75;21660;-71
2020/12/18 02:29:06;;;;;;;7.10;4.17;;;3.10;99.90;;;;;;1878005;75;21632;-71
2020/12/18 02:31:32;;;;;;;6.80;3.92;;;3.10;99.90;;;;;;1874529;75;21044;-72
2020/12/18 02:33:58;;;;;;;11.93;4.80;;;3.20;99.90;;;;;;1874728;75;21070;-72
2020/12/18 02:36:24;;;;;;;7.83;4.65;;;3.10;99.90;;;;;;1877884;75;21073;-72
2020/12/18 02:38:50;;;;;;;8.85;4.65;;;3.20;99.90;;;;;;1862088;75;21160;-72
2020/12/18 02:41:16;;;;;;;7.67;3.98;;;3.30;99.90;;;;;;1880862;75;21144;-72
2020/12/18 02:43:43;;;;;;;4.85;3.95;;;3.20;99.90;;;;;;1880841;75;21062;-72
2020/12/18 02:46:09;;;;;;;4.62;4.15;;;3.10;99.90;;;;;;1878913;75;21144;-72
2020/12/18 02:48:35;;;;;;;12.88;4.80;;;3.10;99.90;;;;;;1875272;75;21487;-71
2020/12/18 02:51:02;;;;;;;5.70;4.10;;;3.00;99.90;;;;;;1874641;75;21201;-71
2020/12/18 02:53:28;;;;;;;9.05;4.55;;;3.00;99.90;;;;;;1891326;75;21073;-72
2020/12/18 02:55:54;;;;;;;15.25;4.45;;;3.00;99.90;;;;;;1885137;75;21077;-72
2020/12/18 02:58:20;;;;;;;6.03;4.37;;;3.10;99.90;;;;;;1868351;75;21083;-72
2020/12/18 03:00:46;;;;;;;6.97;3.87;;;3.00;99.90;;;;;;1878595;75;21075;-72
2020/12/18 03:03:12;;;;;;;8.60;4.47;;;3.10;99.90;;;;;;1889236;75;21132;-72
2020/12/18 03:05:38;;;;;;;5.12;3.90;;;3.10;99.90;;;;;;1890190;75;21075;-72
2020/12/18 03:08:04;;;;;;;11.65;4.47;;;3.00;99.90;;;;;;1897512;75;21051;-72
2020/12/18 03:10:31;;;;;;;4.83;3.37;;;3.10;99.90;;;;;;1893440;74;21075;-72
2020/12/18 03:12:57;;;;;;;8.65;4.40;;;3.10;99.90;;;;;;1891349;74;21082;-72
2020/12/18 03:15:23;;;;;;;6.35;3.83;;;3.00;99.90;;;;;;1883033;75;21147;-71
2020/12/18 03:17:49;;;;;;;7.20;4.47;;;3.00;99.90;;;;;;1893423;74;21169;-72
2020/12/18 03:20:15;;;;;;;5.67;3.75;;;3.00;99.90;;;;;;1887252;75;21463;-72
2020/12/18 03:22:41;;;;;;;7.22;4.03;;;3.10;99.90;;;;;;1889812;75;21492;-73
2020/12/18 03:25:07;;;;;;;6.25;4.10;;;3.10;99.90;;;;;;1886515;75;21441;-73
2020/12/18 03:27:33;;;;;;;7.50;4.72;;;3.10;99.90;;;;;;1883087;75;21079;-72
2020/12/18 03:30:00;;;;;;;4.85;4.00;;;3.00;99.90;;;;;;1890390;75;21060;-72
2020/12/18 03:32:26;;;;;;;7.22;4.17;;;2.90;99.90;;;;;;1883012;75;21066;-72
2020/12/18 03:34:52;;;;;;;6.87;4.12;;;2.90;99.90;;;;;;1888656;75;21083;-71
2020/12/18 03:37:18;;;;;;;7.67;4.95;;;3.00;99.90;;;;;;1893074;75;21199;-71
2020/12/18 03:39:44;;;;;;;11.00;5.22;;;3.10;99.90;;;;;;1876835;75;21159;-72
2020/12/18 03:42:10;;;;;;;11.63;4.70;;;3.20;99.90;;;;;;1879334;75;21478;-72
2020/12/18 03:44:36;;;;;;;8.00;5.10;;;3.20;99.90;;;;;;1897662;75;21190;-72
2020/12/18 03:47:02;;;;;;;17.30;4.90;;;3.20;99.90;;;;;;1887112;75;21153;-72
2020/12/18 03:49:29;;;;;;;6.05;4.42;;;3.30;99.90;;;;;;1891623;74;21044;-71
2020/12/18 03:51:55;;;;;;;10.72;4.92;;;3.20;99.90;;;;;;1887710;74;21182;-72
2020/12/18 03:54:21;;;;;;;7.65;4.92;;;3.20;99.90;;;;;;1893127;75;21057;-71
2020/12/18 03:56:47;;;;;;;7.87;4.62;;;3.20;99.90;;;;;;1876885;75;21143;-72
2020/12/18 03:59:13;;;;;;;9.10;4.85;;;3.30;99.90;;;;;;1875127;75;21198;-71
2020/12/18 04:01:39;;;;;;;6.65;4.42;;;3.30;99.90;;;;;;1880283;75;21077;-72
2020/12/18 04:04:05;;;;;;;8.25;4.70;;;3.30;99.90;;;;;;1886419;75;21078;-72
2020/12/18 04:06:31;;;;;;;8.55;5.05;;;3.30;99.90;;;;;;1881387;75;21464;-72
2020/12/18 04:08:58;;;;;;;7.37;5.17;;;3.30;99.90;;;;;;1881361;75;21494;-72
2020/12/18 04:11:24;;;;;;;7.05;4.78;;;3.20;99.90;;;;;;1890662;75;21474;-72
2020/12/18 04:13:50;;;;;;;7.55;5.35;;;3.40;99.90;;;;;;1880471;75;21140;-72
2020/12/18 04:16:17;;;;;;;9.48;5.03;;;3.50;99.90;;;;;;1882269;75;21147;-71
2020/12/18 04:18:43;;;;;;;13.28;5.50;;;3.60;99.90;;;;;;1890337;75;21087;-72
2020/12/18 04:21:09;;;;;;;5.53;4.20;;;3.60;99.90;;;;;;1884679;75;21078;-72
2020/12/18 04:23:35;;;;;;;6.92;4.45;;;3.60;99.90;;;;;;1876614;75;21159;-72
2020/12/18 04:26:01;;;;;;;8.10;4.78;;;3.70;99.90;;;;;;1880022;75;21475;-72
2020/12/18 04:28:27;;;;;;;6.28;4.22;;;3.80;99.90;;;;;;1883079;75;21515;-72
2020/12/18 04:30:53;;;;;;;10.40;5.45;;;3.70;99.90;;;;;;1880466;75;21070;-72
2020/12/18 04:33:20;;;;;;;10.18;4.92;;;3.60;99.90;;;;;;1882728;75;21144;-71
2020/12/18 04:35:46;;;;;;;5.95;3.87;;;3.70;99.90;;;;;;1891165;75;21073;-71
2020/12/18 04:38:13;;;;;;;7.00;4.55;;;3.80;99.90;;;;;;1880970;75;21075;-72
2020/12/18 04:40:39;;;;;;;6.05;4.00;;;3.80;99.90;;;;;;1882546;75;21196;-71
2020/12/18 04:43:05;;;;;;;7.10;4.47;;;3.80;99.90;;;;;;1880311;75;21145;-72
2020/12/18 04:45:31;;;;;;;9.60;4.55;;;3.80;99.90;;;;;;1880303;75;21078;-71
2020/12/18 04:47:57;;;;;;;7.67;4.15;;;3.90;99.90;;;;;;1880169;75;21213;-72
2020/12/18 04:50:23;;;;;;;8.33;4.35;;;3.90;99.90;;;;;;1894575;75;21134;-72
2020/12/18 04:52:50;;;;;;;8.63;4.62;;;3.90;99.90;;;;;;1883223;75;21042;-72
2020/12/18 04:55:16;;;;;;;6.60;4.62;;;4.00;99.90;;;;;;1879534;75;21501;-72
2020/12/18 04:57:42;;;;;;;9.78;4.83;;;4.00;99.90;;;;;;1882436;75;21488;-72
2020/12/18 05:00:08;;;;;;;8.80;4.37;;;3.90;99.90;;;;;;1875397;75;21466;-72
2020/12/18 05:02:34;;;;;;;7.53;4.40;;;4.00;99.90;;;;;;1881837;75;21073;-72
2020/12/18 05:05:00;;;;;;;8.55;5.45;;;3.90;99.90;;;;;;1882384;74;21204;-72
2020/12/18 05:07:27;;;;;;;10.98;5.33;;;4.00;99.90;;;;;;1890639;75;21212;-72
2020/12/18 05:09:53;;;;;;;7.05;4.90;;;3.90;99.90;;;;;;1890004;75;21092;-72
2020/12/18 05:12:19;;;;;;;11.43;5.17;;;3.80;99.90;;;;;;1874803;74;21189;-71
2020/12/18 05:14:45;;;;;;;11.22;5.22;;;3.90;99.90;;;;;;1880008;75;21090;-72
2020/12/18 05:17:11;;;;;;;7.28;5.15;;;4.00;99.90;;;;;;1886223;74;21528;-72
2020/12/18 05:19:37;;;;;;;6.97;5.17;;;4.00;99.90;;;;;;1874108;75;21596;-73
2020/12/18 05:22:03;;;;;;;8.23;5.35;;;4.00;99.90;;;;;;1877146;75;21557;-72
2020/12/18 05:24:30;;;;;;;7.25;4.80;;;3.90;99.90;;;;;;1887330;75;21165;-72
2020/12/18 05:26:56;;;;;;;5.75;4.35;;;4.00;99.90;;;;;;1882555;75;21078;-73
2020/12/18 05:29:22;;;;;;;7.78;4.85;;;4.00;99.90;;;;;;1892090;75;21087;-72
2020/12/18 05:31:49;;;;;;;9.58;5.10;;;4.10;99.90;;;;;;1880105;75;21087;-72
2020/12/18 05:34:15;;;;;;;9.00;4.85;;;4.10;99.90;;;;;;1882701;75;21436;-72
2020/12/18 05:36:41;;;;;;;12.43;5.08;;;4.20;99.90;;;;;;1865174;75;21063;-72
2020/12/18 05:39:07;;;;;;;9.30;4.67;;;4.20;99.90;;;;;;1895566;75;21130;-71
2020/12/18 05:41:33;;;;;;;7.22;5.15;;;4.10;99.90;;;;;;1891438;75;21128;-72
2020/12/18 05:43:59;;;;;;;15.10;5.30;;;4.20;99.90;;;;;;1880752;75;21104;-72
2020/12/18 05:46:26;;;;;;;10.60;5.62;;;4.20;99.90;;;;;;1879142;75;21148;-71
2020/12/18 05:48:52;;;;;;;6.67;4.87;;;4.20;99.90;;;;;;1891046;75;21066;-73
2020/12/18 05:51:20;;;;;;;7.92;4.75;;;4.30;99.90;;;;;;1873447;75;21125;-72
2020/12/18 05:53:46;;;;;;;8.25;4.47;;;4.40;99.90;;;;;;1881152;75;21154;-71
2020/12/18 05:56:12;;;;;;;14.10;5.08;;;4.40;99.90;;;;;;1890791;75;21273;-72
2020/12/18 05:58:38;;;;;;;8.48;4.92;;;4.40;99.90;;;;;;1877943;75;21274;-71
2020/12/18 06:01:04;;;;;;;7.22;4.60;;;4.40;99.90;;;;;;1877192;75;21225;-72
2020/12/18 06:03:30;;;;;;;7.25;4.97;;;4.40;99.90;;;;;;1891863;75;21222;-72
2020/12/18 06:05:56;;;;;;;6.20;4.90;;;4.30;99.90;;;;;;1880987;75;21051;-72
2020/12/18 06:08:22;;;;;;;5.87;4.37;;;4.50;99.90;;;;;;1869805;75;21083;-73
2020/12/18 06:10:49;;;;;;;10.48;5.05;;;4.50;99.90;;;;;;1891705;75;21165;-72
2020/12/18 06:13:15;;;;;;;7.58;5.42;;;4.50;99.90;;;;;;1880972;75;21071;-73
2020/12/18 06:15:41;;;;;;;8.30;4.95;;;4.40;99.90;;;;;;1885978;75;21202;-72
2020/12/18 06:18:07;;;;;;;9.95;6.03;;;4.40;99.90;;;;;;1885407;75;21148;-73
2020/12/18 06:20:34;;;;;;;9.55;4.90;;;4.50;99.90;;;;;;1886741;75;21075;-73
2020/12/18 06:23:00;;;;;;;7.08;5.05;;;4.50;99.90;;;;;;1887136;75;21515;-72
2020/12/18 06:25:26;;;;;;;6.33;4.97;;;4.50;99.90;;;;;;1895210;75;21440;-73
2020/12/18 06:27:52;;;;;;;9.20;5.00;;;4.40;99.90;;;;;;1880295;75;21507;-72
2020/12/18 06:30:18;;;;;;;9.60;4.87;;;4.60;99.90;;;;;;1887025;75;21205;-71
2020/12/18 06:32:44;;;;;;;7.47;5.15;;;4.60;99.90;;;;;;1875946;75;21153;-71
2020/12/18 06:35:10;;;;;;;8.90;5.00;;;4.40;99.90;;;;;;1881358;75;21074;-72
2020/12/18 06:37:36;;;;;;;8.73;4.97;;;4.50;99.90;;;;;;1885894;75;21074;-72
2020/12/18 06:40:03;;;;;;;7.47;5.08;;;4.60;99.90;;;;;;1880469;75;21153;-72
2020/12/18 06:42:29;;;;;;;11.83;5.67;;;4.50;99.90;;;;;;1884031;75;21068;-72
2020/12/18 06:44:55;;;;;;;12.18;5.20;;;4.70;99.90;;;;;;1877153;75;21544;-72
2020/12/18 06:47:21;;;;;;;10.98;6.10;;;4.60;99.90;;;;;;1882414;75;21495;-72
2020/12/18 06:49:47;;;;;;;10.32;5.55;;;4.70;99.90;;;;;;1876681;75;21615;-72
2020/12/18 06:52:14;;;;;;;11.53;5.55;;;4.70;99.90;;;;;;1884680;74;21485;-72
2020/12/18 06:54:40;;;;;;;10.75;5.75;;;4.80;99.90;;;;;;1877793;75;21192;-72
2020/12/18 06:57:06;;;;;;;7.33;5.20;;;4.70;99.90;;;;;;1883209;75;21078;-73
2020/12/18 06:59:32;;;;;;;6.85;4.50;;;4.70;99.90;;;;;;1888911;75;21069;-73
2020/12/18 07:01:58;;;;;;;7.40;5.00;;;4.70;99.90;;;;;;1884682;75;21144;-72
2020/12/18 07:04:24;;;;;;;10.20;5.62;;;4.60;99.90;;;;;;1892140;75;21075;-73
2020/12/18 07:06:50;;;;;;;8.80;4.90;;;4.70;99.90;;;;;;1879724;75;21070;-73
2020/12/18 07:09:17;;;;;;;8.43;5.22;;;4.60;99.90;;;;;;1892165;75;21141;-72
2020/12/18 07:11:43;;;;;;;6.78;4.97;;;4.60;99.90;;;;;;1881784;75;21480;-73
2020/12/18 07:14:14;;;;;;;6.92;5.15;;;4.50;99.90;;;;;;1887391;75;21456;-82
2020/12/18 07:16:37;;;;;;;7.67;4.92;;;4.60;99.90;;;;;;1890488;75;21082;-70
2020/12/18 07:19:04;;;;;;;6.85;4.60;;;4.50;99.90;;;;;;1893026;75;21083;-69
2020/12/18 07:21:30;;;;;;;10.45;5.17;;;4.60;99.90;;;;;;1895061;75;21083;-69
2020/12/18 07:23:56;;;;;;;9.70;5.30;;;4.50;99.90;;;;;;1894926;75;21074;-69
2020/12/18 07:26:22;;;;;;;8.40;5.25;;;4.50;99.90;;;;;;1893266;75;21197;-69
2020/12/18 07:28:48;;;;;;;9.73;5.33;;;4.50;99.90;;;;;;1881987;75;21052;-68
2020/12/18 07:31:15;;;;;;;11.45;6.10;;;4.40;99.90;;;;;;1890226;74;21052;-68
2020/12/18 07:33:41;;;;;;;8.83;5.60;;;4.40;99.90;;;;;;1885286;75;21052;-69
2020/12/18 07:36:07;;;;;;;17.40;6.05;;;4.40;99.90;;;;;;1892929;75;21062;-69
2020/12/18 07:38:33;;;;;;;11.15;5.45;;;4.40;99.90;;;;;;1883063;75;21067;-69
2020/12/18 07:40:59;;;;;;;10.13;5.83;;;4.40;99.90;;;;;;1895985;74;21119;-68
2020/12/18 07:43:25;;;;;;;7.97;5.33;;;4.40;99.90;;;;;;1891348;75;21176;-69
2020/12/18 07:45:51;;;;;;;11.03;6.00;;;4.40;99.90;;;;;;1890382;75;21074;-68
2020/12/18 07:48:17;;;;;;;9.78;5.45;;;4.50;99.90;;;;;;1893182;75;21042;-69
2020/12/18 07:50:44;;;;;;;8.55;5.70;;;4.60;99.90;;;;;;1883810;75;21197;-68
2020/12/18 07:53:10;;;;;;;9.90;5.03;;;4.50;99.90;;;;;;1885479;75;21071;-68
2020/12/18 07:55:36;;;;;;;14.30;5.15;;;4.50;99.90;;;;;;1895588;75;21224;-69
2020/12/18 07:58:02;;;;;;;8.98;5.22;;;4.60;99.90;;;;;;1889882;75;21080;-69
2020/12/18 08:00:29;;;;;;;8.48;5.17;;;4.70;99.90;;;;;;1880477;75;21078;-70
2020/12/18 08:02:55;;;;;;;8.30;5.37;;;4.70;99.90;;;;;;1873931;75;21050;-69
2020/12/18 08:05:21;;;;;;;10.55;5.70;;;4.70;99.90;;;;;;1882784;74;21062;-69
2020/12/18 08:07:47;;;;;;;10.18;5.90;;;4.60;99.90;;;;;;1878374;75;21067;-69
2020/12/18 08:10:15;;;;;;;7.78;5.08;;;4.60;99.90;;;;;;1884010;75;21147;-69
2020/12/18 08:12:41;;;;;;;12.05;5.22;;;4.60;99.90;;;;;;1881541;75;21070;-68
2020/12/18 08:15:07;;;;;;;13.95;5.70;;;4.80;99.90;;;;;;1882706;74;21056;-69
2020/12/18 08:17:34;;;;;;;10.55;5.62;;;4.90;99.90;;;;;;1880836;75;21070;-69
2020/12/18 08:20:01;;;;;;;9.18;5.10;;;5.00;99.90;;;;;;1884939;74;21489;-69
2020/12/18 08:22:27;;;;;;;9.33;5.97;;;4.80;99.90;;;;;;1883847;74;21070;-68
2020/12/18 08:24:53;;;;;;;13.62;6.30;;;4.80;99.90;;;;;;1883291;75;21065;-68
2020/12/18 08:27:22;;;;;;;15.15;7.10;;;4.80;99.90;;;;;;1883069;75;21114;-68
2020/12/18 08:32:32;;;;;;;13.20;5.37;;;5.00;99.90;;;;;;1862439;75;21097;-74
2020/12/18 08:34:59;;;;;;;10.78;5.90;;;5.00;99.90;;;;;;1853344;76;21099;-73
2020/12/18 08:37:25;;;;;;;10.43;5.37;;;5.00;99.90;;;;;;1863042;76;21461;-71
2020/12/18 08:39:51;;;;;;;9.33;6.15;;;5.10;99.90;;;;;;1887050;75;21561;-71
2020/12/18 08:42:17;;;;;;;9.08;5.28;;;5.10;99.90;;;;;;1888410;75;21081;-71
2020/12/18 08:44:43;;;;;;;12.58;6.25;;;5.30;99.90;;;;;;1890437;75;21159;-74
2020/12/18 08:47:09;;;;;;;11.30;5.58;;;5.30;99.90;;;;;;1889853;75;21049;-73
2020/12/18 08:49:35;;;;;;;15.45;5.58;;;5.20;99.90;;;;;;1891093;75;21081;-73
2020/12/18 08:52:01;;;;;;;10.50;5.75;;;5.30;99.90;;;;;;1889740;75;21076;-71
2020/12/18 08:54:28;;;;;;;14.18;6.33;;;5.50;99.90;;;;;;1888167;75;21080;-72
2020/12/18 08:56:54;;;;;;;14.18;6.25;;;5.50;99.90;;;;;;1892957;75;21488;-70
2020/12/18 08:59:20;;;;;;;23.83;6.12;;;5.50;99.90;;;;;;1902398;74;21436;-71
2020/12/18 09:01:46;;;;;;;13.45;6.12;;;5.50;99.90;;;;;;1921534;74;21593;-69
2020/12/18 09:04:12;;;;;;;12.07;6.55;;;5.50;99.90;;;;;;1922379;74;21157;-70
2020/12/18 09:06:38;;;;;;;15.25;7.53;;;5.60;99.90;;;;;;1915338;74;21076;-70
2020/12/18 09:09:05;;;;;;;25.70;10.68;;;5.70;99.90;;;;;;1919367;74;21052;-72
2020/12/18 09:11:31;;;;;;;23.38;10.75;;;5.90;99.90;;;;;;1922300;73;21087;-70
2020/12/18 09:13:58;;;;;;;21.77;11.18;;;5.90;99.90;;;;;;1921383;74;21084;-69
2020/12/18 09:16:24;;;;;;;17.73;9.20;;;5.90;99.90;;;;;;1916306;73;21076;-70
2020/12/18 09:18:51;;;;;;;23.83;8.63;;;5.80;99.90;;;;;;1920932;74;21290;-71
2020/12/18 09:21:17;;;;;;;13.08;7.05;;;5.90;99.90;;;;;;1922290;74;21087;-70
2020/12/18 09:23:44;;;;;;;13.05;6.20;;;6.00;99.90;;;;;;1915817;73;21153;-70
2020/12/18 09:26:10;;;;;;;9.63;5.37;;;6.10;99.90;;;;;;1924210;73;21036;-71
2020/12/18 09:28:36;;;;;;;8.15;5.37;;;6.10;99.90;;;;;;1915875;74;21080;-70
2020/12/18 09:31:02;;;;;;;11.90;5.60;;;6.30;99.90;;;;;;1922300;74;21074;-70
2020/12/18 09:33:32;;;;;;;18.35;5.28;;;6.20;99.90;;;;;;1922285;74;21075;-70
2020/12/18 09:35:56;;;;;;;8.50;5.50;;;6.40;99.90;;;;;;1921360;74;21068;-70
2020/12/18 09:38:22;;;;;;;8.38;5.55;;;6.50;99.90;;;;;;1921486;73;21080;-72
2020/12/18 09:40:50;;;;;;;9.50;5.75;;;6.70;99.90;;;;;;1916090;73;21540;-73
2020/12/18 09:43:16;;;;;;;11.48;5.80;;;7.00;99.90;;;;;;1921730;74;21552;-73
2020/12/18 09:45:42;;;;;;;17.17;5.80;;;7.30;99.90;;;;;;1923291;74;21468;-71
2020/12/18 09:48:08;;;;;;;9.05;5.50;;;7.70;99.90;;;;;;1919711;73;21559;-72
2020/12/18 09:50:34;;;;;;;14.47;5.45;;;8.00;99.90;;;;;;1921931;73;21723;-73
2020/12/18 09:53:01;;;;;;;8.15;4.47;;;8.20;99.90;;;;;;1921387;74;21087;-75
2020/12/18 09:55:27;;;;;;;12.55;5.35;;;8.20;99.90;;;;;;1918092;74;21048;-74
2020/12/18 09:57:53;;;;;;;9.20;4.85;;;8.10;99.90;;;;;;1922825;74;21083;-72
2020/12/18 10:00:19;;;;;;;7.05;4.53;;;8.00;99.90;;;;;;1915131;74;21115;-71
2020/12/18 10:02:45;;;;;;;8.63;4.67;;;8.40;99.90;;;;;;1922998;74;21083;-73
2020/12/18 10:05:11;;;;;;;11.15;4.72;;;8.70;99.90;;;;;;1921504;74;22571;-71
2020/12/18 10:07:37;;;;;;;5.60;4.47;;;8.60;99.90;;;;;;1923220;73;21199;-70
2020/12/18 10:10:04;;;;;;;11.93;4.95;;;8.70;99.90;;;;;;1920573;74;21079;-70
2020/12/18 10:12:30;;;;;;;8.30;4.65;;;8.90;99.90;;;;;;1918550;74;21087;-71
2020/12/18 10:14:56;;;;;;;7.70;4.03;;;9.00;99.90;;;;;;1918268;73;21542;-70
2020/12/18 10:17:22;;;;;;;7.40;4.30;;;9.30;99.90;;;;;;1922869;73;21487;-72
2020/12/18 10:19:48;;;;;;;10.93;4.90;;;9.30;99.90;;;;;;1922583;74;21508;-71
2020/12/18 10:22:14;;;;;;;9.28;4.87;;;8.90;99.90;;;;;;1920578;73;21146;-71
2020/12/18 10:24:40;;;;;;;10.70;4.47;;;9.00;99.90;;;;;;1918361;73;21214;-73
2020/12/18 10:27:07;;;;;;;15.18;5.03;;;9.30;99.90;;;;;;1917483;74;21122;-74
2020/12/18 10:29:33;;;;;;;12.95;5.35;;;9.60;99.90;;;;;;1921198;73;21440;-74
2020/12/18 10:31:59;;;;;;;6.60;4.62;;;9.30;99.90;;;;;;1920480;73;21556;-73
2020/12/18 10:34:25;;;;;;;8.38;4.60;;;9.10;99.90;;;;;;1920208;73;21581;-73
2020/12/18 10:36:52;;;;;;;11.18;4.53;;;9.70;99.90;;;;;;1920937;74;21107;-73
2020/12/18 10:39:18;;;;;;;13.85;5.08;;;10.40;99.90;;;;;;1924403;74;21087;-73
2020/12/18 10:41:44;;;;;;;11.15;4.87;;;10.50;99.90;;;;;;1921595;74;21508;-74
2020/12/18 10:44:10;;;;;;;12.90;5.10;;;10.70;99.90;;;;;;1926144;73;21373;-73
2020/12/18 10:46:37;;;;;;;10.35;4.90;;;11.20;99.90;;;;;;1925109;73;21052;-73
2020/12/18 10:49:04;;;;;;;11.05;4.37;;;11.70;99.90;;;;;;1919391;73;21564;-73
2020/12/18 10:51:30;;;;;;;8.68;4.60;;;11.30;99.90;;;;;;1916398;74;21091;-73
2020/12/18 10:53:56;;;;;;;10.50;4.50;;;11.30;99.90;;;;;;1919773;73;21114;-72
2020/12/18 10:56:22;;;;;;;9.15;4.10;;;11.60;99.90;;;;;;1923451;74;21048;-72
2020/12/18 10:58:49;;;;;;;10.65;4.45;;;11.90;99.90;;;;;;1922704;73;21091;-72
2020/12/18 11:01:15;;;;;;;9.48;4.33;;;11.90;99.90;;;;;;1925179;74;21040;-72
2020/12/18 11:03:41;;;;;;;8.95;4.12;;;11.80;99.90;;;;;;1922198;74;21079;-72
2020/12/18 11:06:07;;;;;;;6.70;4.00;;;11.80;99.90;;;;;;1923660;74;21072;-73
2020/12/18 11:08:33;;;;;;;7.03;4.08;;;12.40;99.90;;;;;;1921414;73;21075;-73
2020/12/18 11:10:59;;;;;;;12.65;4.42;;;12.70;99.90;;;;;;1918921;74;21079;-73
2020/12/18 11:13:25;;;;;;;8.40;4.40;;;12.70;99.90;;;;;;1925864;74;21072;-73
2020/12/18 11:15:52;;;;;;;8.03;3.90;;;12.30;99.90;;;;;;1917827;74;21076;-73
2020/12/18 11:18:18;;;;;;;9.08;4.12;;;11.90;99.90;;;;;;1921566;73;21083;-72
2020/12/18 11:20:44;;;;;;;12.13;4.40;;;11.70;99.90;;;;;;1918935;74;21053;-73
2020/12/18 11:23:10;;;;;;;10.03;4.35;;;12.20;99.90;;;;;;1920436;74;21226;-73
2020/12/18 11:25:36;;;;;;;9.70;4.30;;;12.40;99.90;;;;;;1922194;73;21160;-73
2020/12/18 11:28:02;;;;;;;6.37;3.92;;;12.30;99.90;;;;;;1918404;74;21088;-73
2020/12/18 11:30:28;;;;;;;6.30;4.05;;;13.10;99.90;;;;;;1923281;73;21066;-73
2020/12/18 11:32:54;;;;;;;6.17;3.37;;;13.70;99.90;;;;;;1922811;73;21703;-73
2020/12/18 11:35:21;;;;;;;7.17;4.05;;;13.40;99.90;;;;;;1920930;74;21582;-72
2020/12/18 11:37:47;;;;;;;7.58;3.62;;;13.60;99.90;;;;;;1921496;73;21535;-72
2020/12/18 11:40:13;;;;;;;5.85;3.33;;;13.90;99.90;;;;;;1920829;74;21432;-72
2020/12/18 11:42:39;;;;;;;7.08;3.52;;;14.10;99.90;;;;;;1920622;74;21555;-72
2020/12/18 11:45:05;;;;;;;6.35;3.37;;;14.30;99.90;;;;;;1921025;73;21071;-72
2020/12/18 11:47:32;;;;;;;7.58;3.62;;;14.80;99.90;;;;;;1922930;73;21162;-72
2020/12/18 11:49:58;;;;;;;7.62;3.65;;;14.50;99.90;;;;;;1918002;73;21057;-72
2020/12/18 11:52:24;;;;;;;11.20;4.78;;;13.50;99.90;;;;;;1922400;73;21059;-72
2020/12/18 11:54:50;;;;;;;8.00;4.00;;;13.40;99.90;;;;;;1923490;74;21071;-72
2020/12/18 11:57:17;;;;;;;8.35;3.83;;;13.70;99.90;;;;;;1922162;73;21339;-73
2020/12/18 11:59:43;;;;;;;6.42;3.55;;;14.00;99.90;;;;;;1923555;74;21142;-72
2020/12/18 12:02:09;;;;;;;9.78;3.27;;;13.90;99.90;;;;;;1920592;74;21084;-72
2020/12/18 12:04:35;;;;;;;12.25;3.75;;;14.90;99.90;;;;;;1922900;74;21137;-72
2020/12/18 12:07:01;;;;;;;9.70;3.62;;;15.30;99.90;;;;;;1923050;74;21080;-72
2020/12/18 12:09:27;;;;;;;9.80;3.60;;;14.70;99.90;;;;;;1919508;74;21072;-72
2020/12/18 12:11:54;;;;;;;10.72;3.72;;;14.10;99.90;;;;;;1919410;74;21049;-73
2020/12/18 12:14:21;;;;;;;8.98;3.65;;;14.00;99.90;;;;;;1919321;73;21137;-72
2020/12/18 12:16:47;;;;;;;7.45;3.47;;;14.40;99.90;;;;;;1924169;74;21079;-72
2020/12/18 12:19:13;;;;;;;7.95;3.85;;;14.50;99.90;;;;;;1894032;74;21075;-73
2020/12/18 12:21:39;;;;;;;9.35;3.60;;;14.40;99.90;;;;;;1916266;74;21107;-72
2020/12/18 12:24:05;;;;;;;6.58;3.58;;;14.20;99.90;;;;;;1922493;73;21574;-73
2020/12/18 12:26:31;;;;;;;6.90;3.35;;;14.90;99.90;;;;;;1919734;73;21555;-72
2020/12/18 12:28:58;;;;;;;11.10;3.75;;;15.30;99.90;;;;;;1922533;73;21523;-72
2020/12/18 12:31:24;;;;;;;9.40;3.77;;;15.60;99.90;;;;;;1920473;73;21153;-73
2020/12/18 12:33:50;;;;;;;5.75;3.15;;;15.30;99.90;;;;;;1919406;74;21135;-74
2020/12/18 12:36:16;;;;;;;10.90;3.20;;;15.70;99.90;;;;;;1917099;74;21045;-73
2020/12/18 12:38:42;;;;;;;7.62;3.30;;;15.90;99.90;;;;;;1915732;74;21112;-73
2020/12/18 12:41:08;;;;;;;7.67;3.27;;;16.70;99.90;;;;;;1923218;73;21075;-72
2020/12/18 12:43:34;;;;;;;8.15;3.35;;;16.60;99.90;;;;;;1919504;74;21203;-73
2020/12/18 12:46:00;;;;;;;11.30;3.77;;;17.00;99.90;;;;;;1916428;73;21067;-72
2020/12/18 12:48:27;;;;;;;15.15;3.47;;;17.30;99.90;;;;;;1924680;74;21084;-73